sensor_id;sensor_type;location;lat;lon;timestamp;P1;durP1;ratioP1;P2;durP2;ratioP2
76745;SDS011;65671;49.976;20.038;2024-03-02T00:00:18;52.03;;;26.70;;
76745;SDS011;65671;49.976;20.038;2024-03-02T00:02:46;50.55;;;28.20;;
76745;SDS011;65671;49.976;20.038;2024-03-02T00:05:14;48.17;;;26.58;;
76745;SDS011;65671;49.976;20.038;2024-03-02T00:07:42;52.53;;;27.50;;
76745;SDS011;65671;49.976;20.038;2024-03-02T00:10:09;55.38;;;27.58;;
76745;SDS011;65671;49.976;20.038;2024-03-02T00:12:36;56.72;;;28.05;;
76745;SDS011;65671;49.976;20.038;2024-03-02T00:15:51;55.78;;;28.05;;
76745;SDS011;65671;49.976;20.038;2024-03-02T00:18:18;52.95;;;25.83;;
76745;SDS011;65671;49.976;20.038;2024-03-02T00:20:45;51.03;;;27.25;;
76745;SDS011;65671;49.976;20.038;2024-03-02T00:23:12;57.72;;;27.33;;
76745;SDS011;65671;49.976;20.038;2024-03-02T00:25:41;47.47;;;24.98;;
76745;SDS011;65671;49.976;20.038;2024-03-02T00:28:16;52.85;;;28.00;;
76745;SDS011;65671;49.976;20.038;2024-03-02T00:30:57;54.63;;;26.23;;
76745;SDS011;65671;49.976;20.038;2024-03-02T00:33:28;51.22;;;26.95;;
76745;SDS011;65671;49.976;20.038;2024-03-02T00:35:56;61.30;;;28.90;;
76745;SDS011;65671;49.976;20.038;2024-03-02T00:38:22;52.42;;;27.65;;
76745;SDS011;65671;49.976;20.038;2024-03-02T00:40:49;54.03;;;28.48;;
76745;SDS011;65671;49.976;20.038;2024-03-02T00:45:49;56.40;;;30.58;;
76745;SDS011;65671;49.976;20.038;2024-03-02T00:48:15;51.55;;;28.42;;
76745;SDS011;65671;49.976;20.038;2024-03-02T00:50:44;56.60;;;28.00;;
76745;SDS011;65671;49.976;20.038;2024-03-02T00:53:10;57.97;;;29.23;;
76745;SDS011;65671;49.976;20.038;2024-03-02T00:55:37;64.78;;;28.88;;
76745;SDS011;65671;49.976;20.038;2024-03-02T00:58:04;48.03;;;25.25;;
76745;SDS011;65671;49.976;20.038;2024-03-02T01:00:35;55.00;;;28.42;;
76745;SDS011;65671;49.976;20.038;2024-03-02T01:03:01;51.08;;;27.10;;
76745;SDS011;65671;49.976;20.038;2024-03-02T01:05:26;48.53;;;26.02;;
76745;SDS011;65671;49.976;20.038;2024-03-02T01:07:53;50.17;;;27.52;;
76745;SDS011;65671;49.976;20.038;2024-03-02T01:10:18;54.38;;;28.00;;
76745;SDS011;65671;49.976;20.038;2024-03-02T01:12:45;53.42;;;28.15;;
76745;SDS011;65671;49.976;20.038;2024-03-02T01:15:10;52.90;;;28.08;;
76745;SDS011;65671;49.976;20.038;2024-03-02T01:17:39;53.95;;;29.38;;
76745;SDS011;65671;49.976;20.038;2024-03-02T01:20:04;58.10;;;30.40;;
76745;SDS011;65671;49.976;20.038;2024-03-02T01:22:35;62.33;;;30.70;;
76745;SDS011;65671;49.976;20.038;2024-03-02T01:25:02;59.90;;;30.33;;
76745;SDS011;65671;49.976;20.038;2024-03-02T01:27:28;62.15;;;29.60;;
76745;SDS011;65671;49.976;20.038;2024-03-02T01:29:56;54.55;;;27.50;;
76745;SDS011;65671;49.976;20.038;2024-03-02T01:32:22;55.92;;;29.15;;
76745;SDS011;65671;49.976;20.038;2024-03-02T01:34:50;55.50;;;27.70;;
76745;SDS011;65671;49.976;20.038;2024-03-02T01:37:16;49.45;;;27.65;;
76745;SDS011;65671;49.976;20.038;2024-03-02T01:39:41;64.35;;;27.70;;
76745;SDS011;65671;49.976;20.038;2024-03-02T01:42:06;53.95;;;26.77;;
76745;SDS011;65671;49.976;20.038;2024-03-02T01:44:41;53.05;;;26.08;;
76745;SDS011;65671;49.976;20.038;2024-03-02T01:47:07;54.70;;;28.70;;
76745;SDS011;65671;49.976;20.038;2024-03-02T01:49:32;55.92;;;28.42;;
76745;SDS011;65671;49.976;20.038;2024-03-02T01:51:59;56.40;;;27.98;;
76745;SDS011;65671;49.976;20.038;2024-03-02T01:54:24;56.70;;;27.98;;
76745;SDS011;65671;49.976;20.038;2024-03-02T01:56:50;55.78;;;27.42;;
76745;SDS011;65671;49.976;20.038;2024-03-02T01:59:16;58.35;;;28.65;;
76745;SDS011;65671;49.976;20.038;2024-03-02T02:01:41;54.97;;;29.83;;
76745;SDS011;65671;49.976;20.038;2024-03-02T02:04:07;55.42;;;28.58;;
76745;SDS011;65671;49.976;20.038;2024-03-02T02:06:32;50.42;;;29.08;;
76745;SDS011;65671;49.976;20.038;2024-03-02T02:08:58;55.95;;;29.35;;
76745;SDS011;65671;49.976;20.038;2024-03-02T02:11:24;47.03;;;26.65;;
76745;SDS011;65671;49.976;20.038;2024-03-02T02:13:50;57.55;;;28.30;;
76745;SDS011;65671;49.976;20.038;2024-03-02T02:16:15;52.63;;;28.17;;
76745;SDS011;65671;49.976;20.038;2024-03-02T02:18:41;52.25;;;26.58;;
76745;SDS011;65671;49.976;20.038;2024-03-02T02:21:07;50.65;;;25.98;;
76745;SDS011;65671;49.976;20.038;2024-03-02T02:23:35;54.38;;;26.40;;
76745;SDS011;65671;49.976;20.038;2024-03-02T02:26:06;46.95;;;24.98;;
76745;SDS011;65671;49.976;20.038;2024-03-02T02:28:31;50.33;;;25.55;;
76745;SDS011;65671;49.976;20.038;2024-03-02T02:30:57;49.97;;;25.60;;
76745;SDS011;65671;49.976;20.038;2024-03-02T02:33:25;49.20;;;24.88;;
76745;SDS011;65671;49.976;20.038;2024-03-02T02:35:50;47.45;;;25.25;;
76745;SDS011;65671;49.976;20.038;2024-03-02T02:38:16;47.63;;;23.50;;
76745;SDS011;65671;49.976;20.038;2024-03-02T02:40:41;50.30;;;25.02;;
76745;SDS011;65671;49.976;20.038;2024-03-02T02:43:06;52.08;;;26.15;;
76745;SDS011;65671;49.976;20.038;2024-03-02T02:45:32;54.80;;;27.50;;
76745;SDS011;65671;49.976;20.038;2024-03-02T02:47:57;56.42;;;30.63;;
76745;SDS011;65671;49.976;20.038;2024-03-02T02:50:23;51.67;;;28.95;;
76745;SDS011;65671;49.976;20.038;2024-03-02T02:52:48;61.80;;;31.33;;
76745;SDS011;65671;49.976;20.038;2024-03-02T02:55:15;61.45;;;30.65;;
76745;SDS011;65671;49.976;20.038;2024-03-02T02:57:41;53.08;;;28.77;;
76745;SDS011;65671;49.976;20.038;2024-03-02T03:00:08;57.25;;;29.67;;
76745;SDS011;65671;49.976;20.038;2024-03-02T03:02:42;65.57;;;32.00;;
76745;SDS011;65671;49.976;20.038;2024-03-02T03:05:12;59.85;;;31.30;;
76745;SDS011;65671;49.976;20.038;2024-03-02T03:07:39;58.25;;;29.73;;
76745;SDS011;65671;49.976;20.038;2024-03-02T03:10:09;55.50;;;28.10;;
76745;SDS011;65671;49.976;20.038;2024-03-02T03:12:38;52.80;;;29.23;;
76745;SDS011;65671;49.976;20.038;2024-03-02T03:15:03;51.38;;;26.42;;
76745;SDS011;65671;49.976;20.038;2024-03-02T03:17:29;47.50;;;24.65;;
76745;SDS011;65671;49.976;20.038;2024-03-02T03:19:55;46.88;;;24.88;;
76745;SDS011;65671;49.976;20.038;2024-03-02T03:22:21;46.70;;;24.80;;
76745;SDS011;65671;49.976;20.038;2024-03-02T03:24:46;44.78;;;25.02;;
76745;SDS011;65671;49.976;20.038;2024-03-02T03:27:12;46.50;;;24.05;;
76745;SDS011;65671;49.976;20.038;2024-03-02T03:29:37;48.65;;;24.48;;
76745;SDS011;65671;49.976;20.038;2024-03-02T03:32:03;49.85;;;24.70;;
76745;SDS011;65671;49.976;20.038;2024-03-02T03:34:33;46.88;;;25.48;;
76745;SDS011;65671;49.976;20.038;2024-03-02T03:37:01;44.55;;;24.00;;
76745;SDS011;65671;49.976;20.038;2024-03-02T03:39:28;45.15;;;24.10;;
76745;SDS011;65671;49.976;20.038;2024-03-02T03:41:53;50.08;;;24.35;;
76745;SDS011;65671;49.976;20.038;2024-03-02T03:44:19;46.35;;;23.33;;
76745;SDS011;65671;49.976;20.038;2024-03-02T03:46:44;46.67;;;24.45;;
76745;SDS011;65671;49.976;20.038;2024-03-02T03:49:10;49.33;;;23.65;;
76745;SDS011;65671;49.976;20.038;2024-03-02T03:51:35;48.13;;;22.85;;
76745;SDS011;65671;49.976;20.038;2024-03-02T03:54:01;42.00;;;22.15;;
76745;SDS011;65671;49.976;20.038;2024-03-02T03:56:26;42.88;;;23.40;;
76745;SDS011;65671;49.976;20.038;2024-03-02T03:58:52;42.60;;;21.80;;
76745;SDS011;65671;49.976;20.038;2024-03-02T04:01:23;40.67;;;22.42;;
76745;SDS011;65671;49.976;20.038;2024-03-02T04:03:48;44.45;;;23.05;;
76745;SDS011;65671;49.976;20.038;2024-03-02T04:06:14;47.60;;;23.63;;
76745;SDS011;65671;49.976;20.038;2024-03-02T04:08:41;48.75;;;22.98;;
76745;SDS011;65671;49.976;20.038;2024-03-02T04:11:07;41.67;;;22.75;;
76745;SDS011;65671;49.976;20.038;2024-03-02T04:13:33;46.90;;;23.30;;
76745;SDS011;65671;49.976;20.038;2024-03-02T04:15:58;48.70;;;22.98;;
76745;SDS011;65671;49.976;20.038;2024-03-02T04:18:24;43.83;;;22.50;;
76745;SDS011;65671;49.976;20.038;2024-03-02T04:20:49;41.30;;;23.50;;
76745;SDS011;65671;49.976;20.038;2024-03-02T04:23:14;40.83;;;23.65;;
76745;SDS011;65671;49.976;20.038;2024-03-02T04:25:43;47.40;;;23.88;;
76745;SDS011;65671;49.976;20.038;2024-03-02T04:28:08;43.67;;;23.05;;
76745;SDS011;65671;49.976;20.038;2024-03-02T04:30:37;44.45;;;23.13;;
76745;SDS011;65671;49.976;20.038;2024-03-02T04:33:03;43.13;;;23.00;;
76745;SDS011;65671;49.976;20.038;2024-03-02T04:35:29;43.63;;;22.45;;
76745;SDS011;65671;49.976;20.038;2024-03-02T04:37:57;40.88;;;23.23;;
76745;SDS011;65671;49.976;20.038;2024-03-02T04:40:22;43.95;;;22.65;;
76745;SDS011;65671;49.976;20.038;2024-03-02T04:42:48;41.58;;;22.77;;
76745;SDS011;65671;49.976;20.038;2024-03-02T04:45:13;46.25;;;23.25;;
76745;SDS011;65671;49.976;20.038;2024-03-02T04:47:39;45.90;;;22.95;;
76745;SDS011;65671;49.976;20.038;2024-03-02T04:50:04;41.60;;;22.45;;
76745;SDS011;65671;49.976;20.038;2024-03-02T04:52:30;43.72;;;22.73;;
76745;SDS011;65671;49.976;20.038;2024-03-02T04:54:56;44.80;;;22.73;;
76745;SDS011;65671;49.976;20.038;2024-03-02T04:57:40;41.90;;;21.85;;
76745;SDS011;65671;49.976;20.038;2024-03-02T05:00:06;41.85;;;21.98;;
76745;SDS011;65671;49.976;20.038;2024-03-02T05:02:33;41.47;;;21.95;;
76745;SDS011;65671;49.976;20.038;2024-03-02T05:05:02;40.05;;;20.70;;
76745;SDS011;65671;49.976;20.038;2024-03-02T05:07:28;39.03;;;21.70;;
76745;SDS011;65671;49.976;20.038;2024-03-02T05:09:53;44.65;;;22.58;;
76745;SDS011;65671;49.976;20.038;2024-03-02T05:12:19;43.75;;;22.98;;
76745;SDS011;65671;49.976;20.038;2024-03-02T05:15:03;42.60;;;23.88;;
76745;SDS011;65671;49.976;20.038;2024-03-02T05:17:29;37.03;;;22.45;;
76745;SDS011;65671;49.976;20.038;2024-03-02T05:19:54;45.08;;;24.23;;
76745;SDS011;65671;49.976;20.038;2024-03-02T05:22:19;43.20;;;22.45;;
76745;SDS011;65671;49.976;20.038;2024-03-02T05:24:50;47.95;;;23.42;;
76745;SDS011;65671;49.976;20.038;2024-03-02T05:27:15;47.42;;;23.00;;
76745;SDS011;65671;49.976;20.038;2024-03-02T05:29:41;47.00;;;22.95;;
76745;SDS011;65671;49.976;20.038;2024-03-02T05:32:06;43.38;;;22.15;;
76745;SDS011;65671;49.976;20.038;2024-03-02T05:34:32;48.90;;;24.05;;
76745;SDS011;65671;49.976;20.038;2024-03-02T05:36:59;44.45;;;23.58;;
76745;SDS011;65671;49.976;20.038;2024-03-02T05:39:25;45.33;;;23.10;;
76745;SDS011;65671;49.976;20.038;2024-03-02T05:41:50;41.10;;;23.52;;
76745;SDS011;65671;49.976;20.038;2024-03-02T05:44:19;43.20;;;23.58;;
76745;SDS011;65671;49.976;20.038;2024-03-02T05:46:44;42.95;;;23.08;;
76745;SDS011;65671;49.976;20.038;2024-03-02T05:49:10;43.00;;;22.92;;
76745;SDS011;65671;49.976;20.038;2024-03-02T05:51:36;40.83;;;22.65;;
76745;SDS011;65671;49.976;20.038;2024-03-02T05:54:01;41.05;;;22.35;;
76745;SDS011;65671;49.976;20.038;2024-03-02T05:56:27;42.35;;;22.25;;
76745;SDS011;65671;49.976;20.038;2024-03-02T05:58:52;46.33;;;23.08;;
76745;SDS011;65671;49.976;20.038;2024-03-02T06:01:36;46.58;;;22.05;;
76745;SDS011;65671;49.976;20.038;2024-03-02T06:04:02;44.35;;;24.35;;
76745;SDS011;65671;49.976;20.038;2024-03-02T06:06:28;41.63;;;23.45;;
76745;SDS011;65671;49.976;20.038;2024-03-02T06:08:53;41.33;;;23.05;;
76745;SDS011;65671;49.976;20.038;2024-03-02T06:11:21;35.13;;;20.75;;
76745;SDS011;65671;49.976;20.038;2024-03-02T06:13:47;37.55;;;22.70;;
76745;SDS011;65671;49.976;20.038;2024-03-02T06:16:12;37.25;;;21.95;;
76745;SDS011;65671;49.976;20.038;2024-03-02T06:18:37;45.40;;;22.52;;
76745;SDS011;65671;49.976;20.038;2024-03-02T06:21:03;40.03;;;21.35;;
76745;SDS011;65671;49.976;20.038;2024-03-02T06:23:32;41.38;;;22.35;;
76745;SDS011;65671;49.976;20.038;2024-03-02T06:25:57;44.40;;;22.67;;
76745;SDS011;65671;49.976;20.038;2024-03-02T06:28:23;41.72;;;21.67;;
76745;SDS011;65671;49.976;20.038;2024-03-02T06:30:48;39.13;;;20.17;;
76745;SDS011;65671;49.976;20.038;2024-03-02T06:33:14;37.55;;;21.52;;
76745;SDS011;65671;49.976;20.038;2024-03-02T06:35:39;41.55;;;21.80;;
76745;SDS011;65671;49.976;20.038;2024-03-02T06:38:05;39.70;;;21.67;;
76745;SDS011;65671;49.976;20.038;2024-03-02T06:40:30;39.47;;;21.40;;
76745;SDS011;65671;49.976;20.038;2024-03-02T06:42:59;44.50;;;22.92;;
76745;SDS011;65671;49.976;20.038;2024-03-02T06:45:24;42.53;;;23.17;;
76745;SDS011;65671;49.976;20.038;2024-03-02T06:47:50;43.60;;;22.45;;
76745;SDS011;65671;49.976;20.038;2024-03-02T06:50:15;40.47;;;21.92;;
76745;SDS011;65671;49.976;20.038;2024-03-02T06:52:41;37.63;;;22.65;;
76745;SDS011;65671;49.976;20.038;2024-03-02T06:55:07;40.13;;;22.58;;
76745;SDS011;65671;49.976;20.038;2024-03-02T06:57:32;45.97;;;23.63;;
76745;SDS011;65671;49.976;20.038;2024-03-02T06:59:58;42.88;;;21.83;;
76745;SDS011;65671;49.976;20.038;2024-03-02T07:02:26;36.88;;;21.75;;
76745;SDS011;65671;49.976;20.038;2024-03-02T07:04:52;41.13;;;23.48;;
76745;SDS011;65671;49.976;20.038;2024-03-02T07:07:19;41.40;;;23.30;;
76745;SDS011;65671;49.976;20.038;2024-03-02T07:09:45;41.80;;;23.00;;
76745;SDS011;65671;49.976;20.038;2024-03-02T07:12:10;40.25;;;23.83;;
76745;SDS011;65671;49.976;20.038;2024-03-02T07:14:36;42.47;;;24.23;;
76745;SDS011;65671;49.976;20.038;2024-03-02T07:17:19;46.92;;;24.35;;
76745;SDS011;65671;49.976;20.038;2024-03-02T07:19:45;41.50;;;22.25;;
76745;SDS011;65671;49.976;20.038;2024-03-02T07:22:10;46.78;;;23.52;;
76745;SDS011;65671;49.976;20.038;2024-03-02T07:24:40;42.03;;;23.95;;
76745;SDS011;65671;49.976;20.038;2024-03-02T07:27:06;43.00;;;23.95;;
76745;SDS011;65671;49.976;20.038;2024-03-02T07:29:32;45.03;;;22.80;;
76745;SDS011;65671;49.976;20.038;2024-03-02T07:31:58;45.45;;;23.88;;
76745;SDS011;65671;49.976;20.038;2024-03-02T07:34:24;39.65;;;22.73;;
76745;SDS011;65671;49.976;20.038;2024-03-02T07:36:49;41.58;;;22.60;;
76745;SDS011;65671;49.976;20.038;2024-03-02T07:39:15;43.22;;;22.88;;
76745;SDS011;65671;49.976;20.038;2024-03-02T07:41:41;38.53;;;23.10;;
76745;SDS011;65671;49.976;20.038;2024-03-02T07:44:07;40.67;;;22.00;;
76745;SDS011;65671;49.976;20.038;2024-03-02T07:46:32;33.88;;;21.02;;
76745;SDS011;65671;49.976;20.038;2024-03-02T07:48:58;39.95;;;22.33;;
76745;SDS011;65671;49.976;20.038;2024-03-02T07:51:23;39.35;;;21.25;;
76745;SDS011;65671;49.976;20.038;2024-03-02T07:53:49;35.90;;;21.30;;
76745;SDS011;65671;49.976;20.038;2024-03-02T07:56:17;36.72;;;21.58;;
76745;SDS011;65671;49.976;20.038;2024-03-02T07:58:47;37.00;;;20.52;;
76745;SDS011;65671;49.976;20.038;2024-03-02T08:01:14;41.50;;;20.20;;
76745;SDS011;65671;49.976;20.038;2024-03-02T08:03:40;35.28;;;20.95;;
76745;SDS011;65671;49.976;20.038;2024-03-02T08:06:05;41.05;;;22.75;;
76745;SDS011;65671;49.976;20.038;2024-03-02T08:08:31;46.13;;;24.10;;
76745;SDS011;65671;49.976;20.038;2024-03-02T08:10:56;47.55;;;24.80;;
76745;SDS011;65671;49.976;20.038;2024-03-02T08:13:22;51.85;;;27.25;;
76745;SDS011;65671;49.976;20.038;2024-03-02T08:15:47;46.75;;;26.90;;
76745;SDS011;65671;49.976;20.038;2024-03-02T08:18:13;45.95;;;25.02;;
76745;SDS011;65671;49.976;20.038;2024-03-02T08:20:38;44.88;;;24.60;;
76745;SDS011;65671;49.976;20.038;2024-03-02T08:23:08;46.42;;;24.48;;
76745;SDS011;65671;49.976;20.038;2024-03-02T08:25:33;45.67;;;24.75;;
76745;SDS011;65671;49.976;20.038;2024-03-02T08:27:59;45.63;;;25.13;;
76745;SDS011;65671;49.976;20.038;2024-03-02T08:30:24;42.17;;;22.95;;
76745;SDS011;65671;49.976;20.038;2024-03-02T08:32:50;41.72;;;23.42;;
76745;SDS011;65671;49.976;20.038;2024-03-02T08:35:15;43.70;;;25.05;;
76745;SDS011;65671;49.976;20.038;2024-03-02T08:37:42;44.95;;;25.42;;
76745;SDS011;65671;49.976;20.038;2024-03-02T08:40:08;47.22;;;26.55;;
76745;SDS011;65671;49.976;20.038;2024-03-02T08:42:35;50.35;;;26.20;;
76745;SDS011;65671;49.976;20.038;2024-03-02T08:45:01;46.22;;;28.08;;
76745;SDS011;65671;49.976;20.038;2024-03-02T08:47:27;45.50;;;28.15;;
76745;SDS011;65671;49.976;20.038;2024-03-02T08:49:52;44.38;;;24.65;;
76745;SDS011;65671;49.976;20.038;2024-03-02T08:52:18;42.08;;;25.00;;
76745;SDS011;65671;49.976;20.038;2024-03-02T08:54:43;45.45;;;26.45;;
76745;SDS011;65671;49.976;20.038;2024-03-02T08:57:09;50.05;;;27.50;;
76745;SDS011;65671;49.976;20.038;2024-03-02T08:59:34;51.13;;;28.73;;
76745;SDS011;65671;49.976;20.038;2024-03-02T09:02:00;48.40;;;28.02;;
76745;SDS011;65671;49.976;20.038;2024-03-02T09:04:26;43.17;;;24.92;;
76745;SDS011;65671;49.976;20.038;2024-03-02T09:06:53;44.25;;;24.50;;
76745;SDS011;65671;49.976;20.038;2024-03-02T09:09:18;46.50;;;25.55;;
76745;SDS011;65671;49.976;20.038;2024-03-02T09:11:45;43.63;;;23.88;;
76745;SDS011;65671;49.976;20.038;2024-03-02T09:14:11;43.83;;;25.17;;
76745;SDS011;65671;49.976;20.038;2024-03-02T09:16:37;43.25;;;24.48;;
76745;SDS011;65671;49.976;20.038;2024-03-02T09:19:05;46.45;;;27.60;;
76745;SDS011;65671;49.976;20.038;2024-03-02T09:21:31;46.63;;;25.98;;
76745;SDS011;65671;49.976;20.038;2024-03-02T09:23:56;42.78;;;24.30;;
76745;SDS011;65671;49.976;20.038;2024-03-02T09:26:22;45.80;;;26.23;;
76745;SDS011;65671;49.976;20.038;2024-03-02T09:28:49;43.17;;;25.45;;
76745;SDS011;65671;49.976;20.038;2024-03-02T09:31:16;45.33;;;25.23;;
76745;SDS011;65671;49.976;20.038;2024-03-02T09:33:42;47.95;;;26.30;;
76745;SDS011;65671;49.976;20.038;2024-03-02T09:36:20;44.38;;;25.70;;
76745;SDS011;65671;49.976;20.038;2024-03-02T09:38:47;52.83;;;27.92;;
76745;SDS011;65671;49.976;20.038;2024-03-02T09:41:14;50.10;;;27.85;;
76745;SDS011;65671;49.976;20.038;2024-03-02T09:43:40;49.05;;;27.42;;
76745;SDS011;65671;49.976;20.038;2024-03-02T09:46:07;46.67;;;25.40;;
76745;SDS011;65671;49.976;20.038;2024-03-02T09:48:34;47.92;;;26.30;;
76745;SDS011;65671;49.976;20.038;2024-03-02T09:51:00;57.17;;;28.98;;
76745;SDS011;65671;49.976;20.038;2024-03-02T09:53:30;47.03;;;25.95;;
76745;SDS011;65671;49.976;20.038;2024-03-02T09:55:56;44.80;;;26.33;;
76745;SDS011;65671;49.976;20.038;2024-03-02T09:58:22;46.40;;;27.65;;
76745;SDS011;65671;49.976;20.038;2024-03-02T10:00:47;45.78;;;26.73;;
76745;SDS011;65671;49.976;20.038;2024-03-02T10:03:14;51.70;;;26.95;;
76745;SDS011;65671;49.976;20.038;2024-03-02T10:05:40;43.92;;;24.40;;
76745;SDS011;65671;49.976;20.038;2024-03-02T10:08:05;40.80;;;24.52;;
76745;SDS011;65671;49.976;20.038;2024-03-02T10:10:35;45.22;;;26.85;;
76745;SDS011;65671;49.976;20.038;2024-03-02T10:13:05;45.70;;;24.70;;
76745;SDS011;65671;49.976;20.038;2024-03-02T10:15:32;43.70;;;24.42;;
76745;SDS011;65671;49.976;20.038;2024-03-02T10:17:57;39.58;;;24.25;;
76745;SDS011;65671;49.976;20.038;2024-03-02T10:20:24;39.13;;;23.20;;
76745;SDS011;65671;49.976;20.038;2024-03-02T10:22:50;44.70;;;23.92;;
76745;SDS011;65671;49.976;20.038;2024-03-02T10:25:31;39.05;;;23.15;;
76745;SDS011;65671;49.976;20.038;2024-03-02T10:28:00;46.40;;;25.65;;
76745;SDS011;65671;49.976;20.038;2024-03-02T10:30:26;42.25;;;25.00;;
76745;SDS011;65671;49.976;20.038;2024-03-02T10:32:55;39.30;;;22.70;;
76745;SDS011;65671;49.976;20.038;2024-03-02T10:35:21;37.95;;;23.95;;
76745;SDS011;65671;49.976;20.038;2024-03-02T10:37:51;42.92;;;24.65;;
76745;SDS011;65671;49.976;20.038;2024-03-02T10:40:18;45.97;;;24.38;;
76745;SDS011;65671;49.976;20.038;2024-03-02T10:42:46;42.70;;;24.45;;
76745;SDS011;65671;49.976;20.038;2024-03-02T10:45:13;42.55;;;24.42;;
76745;SDS011;65671;49.976;20.038;2024-03-02T10:47:42;38.28;;;23.35;;
76745;SDS011;65671;49.976;20.038;2024-03-02T10:50:10;43.80;;;25.52;;
76745;SDS011;65671;49.976;20.038;2024-03-02T10:52:36;42.45;;;24.60;;
76745;SDS011;65671;49.976;20.038;2024-03-02T10:55:02;43.15;;;25.10;;
76745;SDS011;65671;49.976;20.038;2024-03-02T10:57:36;39.80;;;23.90;;
76745;SDS011;65671;49.976;20.038;2024-03-02T11:00:07;42.95;;;24.90;;
76745;SDS011;65671;49.976;20.038;2024-03-02T11:02:40;43.85;;;24.88;;
76745;SDS011;65671;49.976;20.038;2024-03-02T11:05:12;44.97;;;23.98;;
76745;SDS011;65671;49.976;20.038;2024-03-02T11:07:48;39.75;;;24.23;;
76745;SDS011;65671;49.976;20.038;2024-03-02T11:10:14;40.63;;;22.88;;
76745;SDS011;65671;49.976;20.038;2024-03-02T11:12:46;37.20;;;23.67;;
76745;SDS011;65671;49.976;20.038;2024-03-02T11:15:18;40.90;;;23.00;;
76745;SDS011;65671;49.976;20.038;2024-03-02T11:17:46;41.08;;;23.23;;
76745;SDS011;65671;49.976;20.038;2024-03-02T11:20:13;42.20;;;24.60;;
76745;SDS011;65671;49.976;20.038;2024-03-02T11:22:40;40.70;;;24.85;;
76745;SDS011;65671;49.976;20.038;2024-03-02T11:25:06;44.70;;;24.33;;
76745;SDS011;65671;49.976;20.038;2024-03-02T11:32:59;40.85;;;23.83;;
76745;SDS011;65671;49.976;20.038;2024-03-02T11:35:34;43.72;;;23.55;;
76745;SDS011;65671;49.976;20.038;2024-03-02T11:38:07;41.72;;;24.42;;
76745;SDS011;65671;49.976;20.038;2024-03-02T11:40:34;43.40;;;25.00;;
76745;SDS011;65671;49.976;20.038;2024-03-02T11:43:00;42.65;;;25.80;;
76745;SDS011;65671;49.976;20.038;2024-03-02T11:45:26;40.90;;;23.95;;
76745;SDS011;65671;49.976;20.038;2024-03-02T11:47:56;38.38;;;22.92;;
76745;SDS011;65671;49.976;20.038;2024-03-02T11:50:40;42.13;;;24.05;;
76745;SDS011;65671;49.976;20.038;2024-03-02T11:53:08;41.22;;;24.55;;
76745;SDS011;65671;49.976;20.038;2024-03-02T11:55:35;40.50;;;23.33;;
76745;SDS011;65671;49.976;20.038;2024-03-02T11:58:03;42.03;;;22.70;;
76745;SDS011;65671;49.976;20.038;2024-03-02T12:00:28;41.88;;;23.48;;
76745;SDS011;65671;49.976;20.038;2024-03-02T12:03:04;39.80;;;21.63;;
76745;SDS011;65671;49.976;20.038;2024-03-02T12:05:32;39.58;;;22.13;;
76745;SDS011;65671;49.976;20.038;2024-03-02T12:07:58;39.10;;;22.05;;
76745;SDS011;65671;49.976;20.038;2024-03-02T12:10:28;39.20;;;23.23;;
76745;SDS011;65671;49.976;20.038;2024-03-02T12:12:58;41.53;;;21.60;;
76745;SDS011;65671;49.976;20.038;2024-03-02T12:15:28;36.85;;;22.63;;
76745;SDS011;65671;49.976;20.038;2024-03-02T12:17:59;40.53;;;23.13;;
76745;SDS011;65671;49.976;20.038;2024-03-02T12:20:26;39.17;;;22.10;;
76745;SDS011;65671;49.976;20.038;2024-03-02T12:22:55;40.03;;;23.67;;
76745;SDS011;65671;49.976;20.038;2024-03-02T12:25:23;41.38;;;23.42;;
76745;SDS011;65671;49.976;20.038;2024-03-02T12:27:50;39.75;;;24.08;;
76745;SDS011;65671;49.976;20.038;2024-03-02T12:30:18;44.22;;;25.45;;
76745;SDS011;65671;49.976;20.038;2024-03-02T12:32:45;39.80;;;23.77;;
76745;SDS011;65671;49.976;20.038;2024-03-02T12:35:11;37.55;;;23.80;;
76745;SDS011;65671;49.976;20.038;2024-03-02T12:37:49;38.70;;;24.05;;
76745;SDS011;65671;49.976;20.038;2024-03-02T12:40:17;40.72;;;23.17;;
76745;SDS011;65671;49.976;20.038;2024-03-02T12:42:47;43.95;;;24.25;;
76745;SDS011;65671;49.976;20.038;2024-03-02T12:45:13;40.75;;;22.77;;
76745;SDS011;65671;49.976;20.038;2024-03-02T12:47:39;37.22;;;23.30;;
76745;SDS011;65671;49.976;20.038;2024-03-02T12:50:07;41.35;;;22.77;;
76745;SDS011;65671;49.976;20.038;2024-03-02T12:52:33;36.13;;;23.00;;
76745;SDS011;65671;49.976;20.038;2024-03-02T12:55:02;36.10;;;22.73;;
76745;SDS011;65671;49.976;20.038;2024-03-02T12:57:30;42.10;;;23.90;;
76745;SDS011;65671;49.976;20.038;2024-03-02T13:00:00;38.13;;;22.35;;
76745;SDS011;65671;49.976;20.038;2024-03-02T13:02:34;45.70;;;23.52;;
76745;SDS011;65671;49.976;20.038;2024-03-02T13:05:01;42.42;;;23.00;;
76745;SDS011;65671;49.976;20.038;2024-03-02T13:07:26;41.25;;;25.20;;
76745;SDS011;65671;49.976;20.038;2024-03-02T13:09:53;38.75;;;23.58;;
76745;SDS011;65671;49.976;20.038;2024-03-02T13:12:20;45.47;;;24.05;;
76745;SDS011;65671;49.976;20.038;2024-03-02T13:14:49;41.85;;;23.88;;
76745;SDS011;65671;49.976;20.038;2024-03-02T13:17:19;39.65;;;22.67;;
76745;SDS011;65671;49.976;20.038;2024-03-02T13:19:51;41.00;;;22.75;;
76745;SDS011;65671;49.976;20.038;2024-03-02T13:22:20;40.47;;;24.25;;
76745;SDS011;65671;49.976;20.038;2024-03-02T13:24:47;38.05;;;23.60;;
76745;SDS011;65671;49.976;20.038;2024-03-02T13:27:13;38.90;;;24.35;;
76745;SDS011;65671;49.976;20.038;2024-03-02T13:29:39;36.33;;;22.33;;
76745;SDS011;65671;49.976;20.038;2024-03-02T13:32:04;41.13;;;23.70;;
76745;SDS011;65671;49.976;20.038;2024-03-02T13:34:30;46.45;;;25.23;;
76745;SDS011;65671;49.976;20.038;2024-03-02T13:36:55;41.97;;;22.88;;
76745;SDS011;65671;49.976;20.038;2024-03-02T13:39:21;41.85;;;24.17;;
76745;SDS011;65671;49.976;20.038;2024-03-02T13:41:46;37.25;;;24.13;;
76745;SDS011;65671;49.976;20.038;2024-03-02T13:44:18;38.90;;;24.15;;
76745;SDS011;65671;49.976;20.038;2024-03-02T13:46:44;39.10;;;22.90;;
76745;SDS011;65671;49.976;20.038;2024-03-02T13:49:11;43.35;;;23.70;;
76745;SDS011;65671;49.976;20.038;2024-03-02T13:51:37;43.92;;;24.52;;
76745;SDS011;65671;49.976;20.038;2024-03-02T13:54:02;43.40;;;25.48;;
76745;SDS011;65671;49.976;20.038;2024-03-02T13:56:28;42.15;;;25.27;;
76745;SDS011;65671;49.976;20.038;2024-03-02T13:58:55;37.80;;;23.90;;
76745;SDS011;65671;49.976;20.038;2024-03-02T14:01:21;40.00;;;24.30;;
76745;SDS011;65671;49.976;20.038;2024-03-02T14:03:47;40.90;;;22.98;;
76745;SDS011;65671;49.976;20.038;2024-03-02T14:06:12;37.92;;;21.70;;
76745;SDS011;65671;49.976;20.038;2024-03-02T14:08:38;36.30;;;22.88;;
76745;SDS011;65671;49.976;20.038;2024-03-02T14:11:04;40.95;;;25.25;;
76745;SDS011;65671;49.976;20.038;2024-03-02T14:13:29;39.85;;;23.55;;
76745;SDS011;65671;49.976;20.038;2024-03-02T14:15:55;44.45;;;24.20;;